Time;durP1;ratioP1;P1;durP2;ratioP2;P2;SDS_P1;SDS_P2;PMS_P1;PMS_P2;Temp;Humidity;BMP_temperature;BMP_pressure;BME280_temperature;BME280_humidity;BME280_pressure;Samples;Min_cycle;Max_cycle;Signal;HPM_P1;HPM_P2
2022/07/30 00:02:15;;;;;;;0.40;0.30;;;19.20;99.90;;;;;;4987717;28;20394;-67
2022/07/30 00:04:42;;;;;;;0.50;0.50;;;19.20;99.90;;;;;;4970095;28;20430;-67
2022/07/30 00:07:08;;;;;;;0.40;0.30;;;19.10;99.90;;;;;;4971206;28;20898;-66
2022/07/30 00:09:34;;;;;;;0.40;0.20;;;19.20;99.90;;;;;;4970862;28;20473;-66
2022/07/30 00:11:59;;;;;;;0.50;0.50;;;19.20;99.90;;;;;;4971067;28;20836;-67
2022/07/30 00:14:25;;;;;;;0.40;0.30;;;19.10;99.90;;;;;;4970889;28;20910;-67
2022/07/30 00:16:53;;;;;;;0.40;0.30;;;19.00;99.90;;;;;;4986940;28;20391;-66
2022/07/30 00:19:19;;;;;;;0.40;0.20;;;19.00;99.90;;;;;;4970852;28;20399;-67
2022/07/30 00:21:45;;;;;;;0.40;0.20;;;19.00;99.90;;;;;;4971183;28;20722;-66
2022/07/30 00:24:11;;;;;;;0.40;0.20;;;19.00;99.90;;;;;;4951899;28;20416;-66
2022/07/30 00:26:37;;;;;;;0.40;0.30;;;18.90;99.90;;;;;;4952017;28;20804;-66
2022/07/30 00:29:03;;;;;;;0.40;0.30;;;18.90;99.90;;;;;;4953857;28;20428;-66
2022/07/30 00:31:30;;;;;;;0.40;0.20;;;18.80;99.90;;;;;;4972976;28;20509;-66
2022/07/30 00:33:55;;;;;;;0.40;0.30;;;18.80;99.90;;;;;;4990207;28;20953;-67
2022/07/30 00:36:21;;;;;;;0.43;0.25;;;18.80;99.90;;;;;;4990433;28;20405;-66
2022/07/30 00:38:47;;;;;;;0.40;0.30;;;18.80;99.90;;;;;;4973737;28;20466;-66
2022/07/30 00:41:13;;;;;;;0.40;0.20;;;18.70;99.90;;;;;;4990557;28;20497;-66
2022/07/30 00:43:39;;;;;;;0.40;0.30;;;18.60;99.90;;;;;;4973492;28;20580;-66
2022/07/30 00:46:05;;;;;;;0.40;0.20;;;18.60;99.90;;;;;;4974421;28;20389;-67
2022/07/30 00:48:30;;;;;;;0.60;0.60;;;18.60;99.90;;;;;;4974036;28;20410;-67
2022/07/30 00:50:56;;;;;;;0.40;0.20;;;18.60;99.90;;;;;;4973796;28;20407;-67
2022/07/30 00:53:22;;;;;;;0.40;0.30;;;18.50;99.90;;;;;;4940036;28;20480;-67
2022/07/30 00:55:48;;;;;;;0.40;0.30;;;18.50;99.90;;;;;;4973590;28;20391;-66
2022/07/30 00:58:14;;;;;;;0.40;0.20;;;18.40;99.90;;;;;;4989983;28;20468;-67
2022/07/30 01:00:39;;;;;;;0.40;0.30;;;18.30;99.90;;;;;;4973660;28;20403;-67
2022/07/30 01:03:05;;;;;;;0.40;0.20;;;18.30;99.90;;;;;;4974437;28;20437;-67
2022/07/30 01:05:31;;;;;;;0.40;0.30;;;18.30;99.90;;;;;;4973374;28;20426;-67
2022/07/30 01:07:58;;;;;;;0.40;0.30;;;18.40;99.90;;;;;;4973520;28;20402;-66
2022/07/30 01:10:23;;;;;;;0.40;0.20;;;18.30;99.90;;;;;;4973535;28;20484;-66
2022/07/30 01:12:51;;;;;;;0.50;0.50;;;18.20;99.90;;;;;;4972681;28;20474;-66
2022/07/30 01:15:18;;;;;;;0.40;0.20;;;18.10;99.90;;;;;;4973514;28;20490;-66
2022/07/30 01:17:46;;;;;;;0.40;0.40;;;18.10;99.90;;;;;;4989990;28;20406;-67
2022/07/30 01:20:21;;;;;;;0.70;0.70;;;18.00;99.90;;;;;;4970477;28;20714;-66
2022/07/30 01:23:23;;;;;;;0.40;0.30;;;17.80;99.90;;;;;;4951074;28;20456;-66
2022/07/30 01:26:11;;;;;;;0.40;0.30;;;17.90;99.90;;;;;;4976582;28;20977;-66
2022/07/30 01:28:42;;;;;;;0.40;0.30;;;17.90;99.90;;;;;;4989616;28;20395;-66
2022/07/30 01:31:09;;;;;;;0.40;0.20;;;17.80;99.90;;;;;;4989537;28;20433;-66
2022/07/30 01:33:40;;;;;;;0.40;0.30;;;17.70;99.90;;;;;;4973364;28;20399;-66
2022/07/30 01:36:09;;;;;;;0.40;0.20;;;17.70;99.90;;;;;;4989213;28;20407;-67
2022/07/30 01:38:37;;;;;;;0.40;0.30;;;17.60;99.90;;;;;;4989338;28;20482;-66
2022/07/30 01:41:03;;;;;;;0.40;0.30;;;17.50;99.90;;;;;;4988911;28;20403;-66
2022/07/30 01:43:31;;;;;;;0.40;0.30;;;17.40;99.90;;;;;;4972883;28;20391;-66
2022/07/30 01:45:59;;;;;;;0.80;0.80;;;17.50;99.90;;;;;;4973054;28;20430;-67
2022/07/30 01:48:27;;;;;;;0.40;0.20;;;17.50;99.90;;;;;;4989136;28;20391;-66
2022/07/30 01:50:58;;;;;;;0.40;0.30;;;17.40;99.90;;;;;;4988980;28;20391;-66
2022/07/30 01:53:26;;;;;;;0.40;0.30;;;17.30;99.90;;;;;;5003453;28;20528;-66
2022/07/30 01:55:54;;;;;;;0.40;0.30;;;17.20;99.90;;;;;;4988302;28;20406;-67
2022/07/30 01:58:23;;;;;;;0.40;0.30;;;17.20;99.90;;;;;;4989262;28;20496;-66
2022/07/30 02:00:50;;;;;;;0.40;0.20;;;17.20;99.90;;;;;;4988387;28;20885;-67
2022/07/30 02:03:16;;;;;;;0.40;0.20;;;17.20;99.90;;;;;;4973365;28;20391;-66
2022/07/30 02:05:49;;;;;;;0.40;0.20;;;17.20;99.90;;;;;;4988478;28;20418;-66
2022/07/30 02:08:35;;;;;;;0.43;0.32;;;17.20;99.90;;;;;;4989345;28;20433;-66
2022/07/30 02:11:08;;;;;;;0.40;0.30;;;17.10;99.90;;;;;;4988759;28;20586;-66
2022/07/30 02:13:40;;;;;;;0.40;0.20;;;17.00;99.90;;;;;;4972800;28;20407;-66
2022/07/30 02:16:14;;;;;;;0.82;0.82;;;17.00;99.90;;;;;;4988811;28;20441;-66
2022/07/30 02:18:56;;;;;;;0.40;0.27;;;16.90;99.90;;;;;;4989023;28;20479;-66
2022/07/30 02:21:24;;;;;;;0.40;0.30;;;16.80;99.90;;;;;;4987305;28;20403;-66
2022/07/30 02:23:51;;;;;;;0.50;0.40;;;16.80;99.90;;;;;;4988227;28;20414;-67
2022/07/30 02:26:20;;;;;;;0.40;0.20;;;16.80;99.90;;;;;;4988844;28;20452;-66
2022/07/30 02:28:50;;;;;;;0.40;0.30;;;16.80;99.90;;;;;;4988383;28;20458;-66
2022/07/30 02:31:21;;;;;;;0.40;0.30;;;16.70;99.90;;;;;;4988857;28;20402;-66
2022/07/30 02:33:49;;;;;;;0.40;0.30;;;16.80;99.90;;;;;;4988362;28;20395;-66
2022/07/30 02:36:17;;;;;;;1.10;0.70;;;16.80;99.90;;;;;;4988699;28;20398;-66
2022/07/30 02:38:44;;;;;;;0.40;0.30;;;16.70;99.90;;;;;;4988284;28;20864;-66
2022/07/30 02:41:13;;;;;;;0.40;0.30;;;16.60;99.90;;;;;;4972423;28;20793;-66
2022/07/30 02:43:40;;;;;;;0.40;0.30;;;16.60;99.90;;;;;;4972144;28;20445;-66
2022/07/30 02:46:08;;;;;;;0.40;0.20;;;16.60;99.90;;;;;;4972157;28;20464;-67
2022/07/30 02:48:37;;;;;;;0.40;0.20;;;16.60;99.90;;;;;;4988115;28;20403;-66
2022/07/30 02:51:05;;;;;;;0.40;0.30;;;16.60;99.90;;;;;;4987425;28;20449;-66
2022/07/30 02:53:32;;;;;;;0.40;0.22;;;16.50;99.90;;;;;;4968369;28;20393;-66
2022/07/30 02:56:00;;;;;;;0.90;0.90;;;16.50;99.90;;;;;;4958718;28;20493;-66
2022/07/30 02:58:28;;;;;;;0.40;0.30;;;16.40;99.90;;;;;;4972051;28;20425;-67
2022/07/30 03:00:55;;;;;;;0.40;0.20;;;16.40;99.90;;;;;;4987963;28;20788;-66
2022/07/30 03:03:27;;;;;;;0.40;0.20;;;16.40;99.90;;;;;;4988103;28;20391;-67
2022/07/30 03:05:54;;;;;;;0.40;0.30;;;16.40;99.90;;;;;;4972482;28;20449;-67
2022/07/30 03:08:21;;;;;;;0.40;0.30;;;16.40;99.90;;;;;;4988618;28;20452;-66
2022/07/30 03:10:47;;;;;;;0.40;0.20;;;16.30;99.90;;;;;;4987557;28;20447;-66
2022/07/30 03:13:14;;;;;;;0.40;0.20;;;16.30;99.90;;;;;;4988448;28;20400;-66
2022/07/30 03:15:47;;;;;;;0.40;0.20;;;16.30;99.90;;;;;;4971674;28;20403;-66
2022/07/30 03:18:14;;;;;;;0.40;0.28;;;16.40;99.90;;;;;;4988480;28;20789;-66
2022/07/30 03:20:43;;;;;;;0.40;0.20;;;16.40;99.90;;;;;;4970302;28;20395;-66
2022/07/30 03:23:11;;;;;;;0.40;0.20;;;16.60;99.90;;;;;;4987813;28;20743;-66
2022/07/30 03:25:38;;;;;;;0.40;0.20;;;16.60;99.90;;;;;;4989234;28;20497;-66
2022/07/30 03:28:05;;;;;;;0.40;0.20;;;16.50;99.90;;;;;;4987105;28;20395;-66
2022/07/30 03:30:33;;;;;;;0.40;0.20;;;16.50;99.90;;;;;;4971654;28;20901;-66
2022/07/30 03:32:59;;;;;;;0.40;0.20;;;16.60;99.90;;;;;;5004120;28;20793;-67
2022/07/30 03:35:26;;;;;;;0.40;0.30;;;16.50;99.90;;;;;;4972328;28;20908;-67
2022/07/30 03:37:53;;;;;;;0.40;0.30;;;16.60;99.90;;;;;;4971809;28;20403;-67
2022/07/30 03:40:20;;;;;;;0.40;0.30;;;16.60;99.90;;;;;;4971756;28;20398;-66
2022/07/30 03:42:46;;;;;;;0.40;0.30;;;16.60;99.90;;;;;;4971448;28;20438;-67
2022/07/30 03:45:13;;;;;;;0.40;0.30;;;16.60;99.90;;;;;;4987755;28;20427;-66
2022/07/30 03:47:42;;;;;;;0.40;0.20;;;16.60;99.90;;;;;;4972147;28;20735;-67
2022/07/30 03:50:09;;;;;;;0.50;0.50;;;16.60;99.90;;;;;;4971536;28;20395;-67
2022/07/30 03:52:39;;;;;;;0.40;0.22;;;16.60;99.90;;;;;;4970985;28;20410;-66
2022/07/30 03:55:07;;;;;;;0.40;0.20;;;16.60;99.90;;;;;;4987411;28;20398;-67
2022/07/30 03:57:33;;;;;;;0.40;0.20;;;16.60;99.90;;;;;;4971693;28;20410;-66
2022/07/30 03:59:59;;;;;;;0.40;0.30;;;16.60;99.90;;;;;;4987694;28;20398;-66
2022/07/30 04:02:24;;;;;;;0.40;0.40;;;16.60;99.90;;;;;;4971948;28;20402;-66
2022/07/30 04:04:50;;;;;;;0.40;0.30;;;16.50;99.90;;;;;;4971146;28;20767;-66
2022/07/30 04:07:16;;;;;;;0.40;0.20;;;16.50;99.90;;;;;;4974523;28;20478;-66
2022/07/30 04:09:42;;;;;;;0.40;0.20;;;16.40;99.90;;;;;;4975191;28;20426;-66
2022/07/30 04:12:08;;;;;;;0.40;0.30;;;16.30;99.90;;;;;;4990847;28;20572;-66
2022/07/30 04:14:43;;;;;;;0.40;0.20;;;16.10;99.90;;;;;;4991326;28;20474;-66
2022/07/30 04:17:16;;;;;;;0.40;0.20;;;16.10;99.90;;;;;;4990797;28;20403;-66
2022/07/30 04:19:46;;;;;;;0.40;0.20;;;16.20;99.90;;;;;;4991308;28;20390;-66
2022/07/30 04:22:15;;;;;;;0.40;0.30;;;16.30;99.90;;;;;;4956059;28;20398;-66
2022/07/30 04:24:44;;;;;;;0.40;0.28;;;16.30;99.90;;;;;;4990561;28;20422;-66
2022/07/30 04:27:10;;;;;;;0.40;0.30;;;16.20;99.90;;;;;;4974599;28;20430;-66
2022/07/30 04:29:36;;;;;;;0.40;0.30;;;16.20;99.90;;;;;;4974909;28;20413;-66
2022/07/30 04:32:01;;;;;;;0.40;0.20;;;16.10;99.90;;;;;;4974562;28;20399;-66
2022/07/30 04:34:28;;;;;;;0.40;0.30;;;16.10;99.90;;;;;;4990071;28;20455;-66
2022/07/30 04:36:54;;;;;;;0.40;0.20;;;16.10;99.90;;;;;;4974281;28;20430;-66
2022/07/30 04:39:19;;;;;;;0.50;0.50;;;16.00;99.90;;;;;;4974486;28;20511;-66
2022/07/30 04:41:45;;;;;;;0.40;0.30;;;16.00;99.90;;;;;;4990502;28;20403;-66
2022/07/30 04:44:11;;;;;;;0.40;0.20;;;15.90;99.90;;;;;;4973977;28;20434;-66
2022/07/30 04:46:37;;;;;;;0.40;0.25;;;15.90;99.90;;;;;;4990916;28;20928;-66
2022/07/30 04:49:03;;;;;;;0.40;0.40;;;15.90;99.90;;;;;;4974472;28;20489;-66
2022/07/30 04:51:32;;;;;;;0.40;0.28;;;15.90;99.90;;;;;;4970064;28;20823;-66
2022/07/30 04:54:00;;;;;;;0.40;0.20;;;15.80;99.90;;;;;;4956950;28;20405;-67
2022/07/30 04:56:30;;;;;;;0.40;0.20;;;15.90;99.90;;;;;;4971317;28;20423;-67
2022/07/30 04:58:57;;;;;;;0.40;0.30;;;16.00;99.90;;;;;;4970931;28;20892;-66
2022/07/30 05:01:26;;;;;;;0.40;0.30;;;16.00;99.90;;;;;;4969764;28;20944;-66
2022/07/30 05:03:52;;;;;;;0.40;0.30;;;16.10;99.90;;;;;;4989304;28;20460;-66
2022/07/30 05:06:20;;;;;;;0.40;0.20;;;16.00;99.90;;;;;;4974274;28;20394;-66
2022/07/30 05:08:46;;;;;;;0.40;0.20;;;16.10;99.90;;;;;;4973570;28;20441;-66
2022/07/30 05:11:13;;;;;;;0.40;0.30;;;16.20;99.90;;;;;;4973111;28;20459;-67
2022/07/30 05:13:43;;;;;;;0.40;0.30;;;16.20;99.90;;;;;;4989534;28;20410;-66
2022/07/30 05:16:10;;;;;;;0.40;0.30;;;16.20;99.90;;;;;;4989410;28;20414;-66
2022/07/30 05:18:37;;;;;;;0.40;0.20;;;16.20;99.90;;;;;;4989841;28;20429;-66
2022/07/30 05:21:03;;;;;;;0.50;0.50;;;16.20;99.90;;;;;;4967172;28;20747;-66
2022/07/30 05:23:29;;;;;;;0.40;0.20;;;16.30;99.90;;;;;;4972861;28;20418;-66
2022/07/30 05:25:55;;;;;;;0.50;0.50;;;16.30;99.90;;;;;;4973367;28;20430;-66
2022/07/30 05:28:21;;;;;;;0.40;0.30;;;16.40;99.90;;;;;;4987998;28;20421;-66
2022/07/30 05:30:47;;;;;;;0.40;0.20;;;16.40;99.90;;;;;;4956651;28;20428;-66
2022/07/30 05:33:13;;;;;;;0.40;0.30;;;16.40;99.90;;;;;;4955324;28;20423;-66
2022/07/30 05:35:39;;;;;;;0.40;0.20;;;16.60;99.90;;;;;;4956539;28;20419;-66
2022/07/30 05:38:05;;;;;;;0.40;0.20;;;16.70;99.90;;;;;;4953736;28;20393;-66
2022/07/30 05:40:30;;;;;;;0.40;0.20;;;16.80;99.90;;;;;;4973802;28;20408;-66
2022/07/30 05:42:56;;;;;;;0.40;0.30;;;16.90;99.90;;;;;;4953627;28;20888;-66
2022/07/30 05:45:22;;;;;;;0.40;0.30;;;16.90;99.90;;;;;;4976488;28;20708;-66
2022/07/30 05:47:48;;;;;;;0.40;0.30;;;16.90;99.90;;;;;;4953656;28;20400;-66
2022/07/30 05:50:14;;;;;;;0.40;0.30;;;17.00;99.90;;;;;;4971805;28;20402;-66
2022/07/30 05:52:41;;;;;;;0.40;0.30;;;17.00;99.90;;;;;;4955556;28;20412;-66
2022/07/30 05:55:08;;;;;;;0.40;0.20;;;17.10;99.90;;;;;;4971644;28;20413;-66
2022/07/30 05:57:37;;;;;;;0.40;0.30;;;17.20;99.90;;;;;;4991168;28;20412;-66
2022/07/30 06:00:07;;;;;;;0.40;0.20;;;17.30;99.90;;;;;;5003493;28;20495;-67
2022/07/30 06:02:34;;;;;;;0.40;0.28;;;17.40;99.90;;;;;;4956132;28;20768;-67
2022/07/30 06:05:00;;;;;;;0.40;0.20;;;17.60;99.90;;;;;;4970582;28;21033;-66
2022/07/30 06:07:27;;;;;;;0.40;0.40;;;17.60;99.90;;;;;;4982863;28;20414;-67
2022/07/30 06:09:58;;;;;;;0.40;0.30;;;17.70;99.90;;;;;;4983780;28;20412;-66
2022/07/30 06:12:29;;;;;;;0.40;0.30;;;17.90;99.90;;;;;;4971502;28;20493;-67
2022/07/30 06:14:57;;;;;;;0.60;0.50;;;18.00;99.90;;;;;;4976529;28;20416;-66
2022/07/30 06:17:24;;;;;;;0.60;0.60;;;18.00;99.90;;;;;;4955659;28;20412;-67
2022/07/30 06:19:52;;;;;;;0.40;0.30;;;18.10;99.90;;;;;;4956361;28;20405;-67
2022/07/30 06:22:19;;;;;;;0.40;0.30;;;18.10;99.90;;;;;;4956673;28;20409;-66
2022/07/30 06:24:45;;;;;;;0.70;0.50;;;18.20;99.90;;;;;;4939280;28;20918;-66
2022/07/30 06:27:12;;;;;;;0.40;0.30;;;18.40;99.90;;;;;;4953941;28;20762;-67
2022/07/30 06:29:39;;;;;;;0.40;0.20;;;18.40;99.90;;;;;;4952913;28;20823;-67
2022/07/30 06:32:06;;;;;;;0.40;0.30;;;18.50;99.90;;;;;;4953105;28;20403;-67
2022/07/30 06:34:32;;;;;;;0.40;0.30;;;18.60;99.90;;;;;;4972456;28;20423;-66
2022/07/30 06:36:58;;;;;;;0.40;0.30;;;18.70;99.90;;;;;;4973003;28;20436;-67
2022/07/30 06:39:25;;;;;;;0.40;0.20;;;18.90;99.90;;;;;;4988606;28;20751;-66
2022/07/30 06:41:51;;;;;;;0.40;0.30;;;19.00;99.90;;;;;;4989090;28;20786;-66
2022/07/30 06:44:17;;;;;;;0.40;0.30;;;19.10;99.90;;;;;;4988057;28;20431;-67
2022/07/30 06:46:44;;;;;;;0.40;0.30;;;19.10;99.90;;;;;;4986337;28;20453;-67
2022/07/30 06:49:10;;;;;;;0.40;0.30;;;19.20;99.90;;;;;;4985123;28;20509;-67
2022/07/30 06:51:36;;;;;;;0.60;0.60;;;19.20;99.90;;;;;;4979787;28;20749;-67
2022/07/30 06:54:02;;;;;;;0.40;0.20;;;19.20;99.90;;;;;;4965160;28;20910;-67
2022/07/30 06:56:28;;;;;;;0.40;0.30;;;19.30;99.90;;;;;;4966956;28;20418;-68
2022/07/30 06:58:54;;;;;;;0.40;0.30;;;19.30;99.90;;;;;;4965845;28;20413;-68
2022/07/30 07:01:22;;;;;;;0.40;0.37;;;19.40;99.90;;;;;;4969095;28;20481;-68
2022/07/30 07:03:47;;;;;;;0.40;0.30;;;19.60;99.90;;;;;;4934318;28;20429;-68
2022/07/30 07:06:13;;;;;;;0.40;0.20;;;19.60;99.90;;;;;;4961289;28;20402;-67
2022/07/30 07:08:39;;;;;;;0.40;0.30;;;19.80;99.90;;;;;;4975336;28;20923;-68
2022/07/30 07:11:05;;;;;;;0.40;0.30;;;20.20;99.90;;;;;;4978462;28;20867;-68
2022/07/30 07:13:31;;;;;;;0.40;0.20;;;20.40;99.90;;;;;;4952780;28;20424;-68
2022/07/30 07:15:57;;;;;;;0.60;0.60;;;20.60;99.90;;;;;;4952498;28;20408;-68
2022/07/30 07:18:25;;;;;;;0.40;0.30;;;20.80;99.90;;;;;;4972762;28;20417;-68
2022/07/30 07:20:52;;;;;;;0.60;0.60;;;20.80;99.90;;;;;;4969920;28;20389;-68
2022/07/30 07:23:19;;;;;;;0.60;0.60;;;20.90;99.90;;;;;;4955949;28;20835;-68
2022/07/30 07:25:44;;;;;;;0.50;0.40;;;21.10;99.90;;;;;;4952581;28;20420;-69
2022/07/30 07:28:13;;;;;;;0.40;0.30;;;21.40;99.90;;;;;;4952204;28;20415;-68
2022/07/30 07:30:40;;;;;;;0.40;0.30;;;21.50;99.90;;;;;;4976635;28;20414;-69
2022/07/30 07:33:06;;;;;;;0.40;0.30;;;21.50;99.90;;;;;;4966405;28;20438;-68
2022/07/30 07:35:32;;;;;;;0.40;0.20;;;21.60;99.90;;;;;;4968646;28;20451;-68
2022/07/30 07:37:58;;;;;;;0.40;0.30;;;21.70;99.90;;;;;;4968657;28;20400;-68
2022/07/30 07:40:24;;;;;;;2.20;0.80;;;21.60;99.90;;;;;;4982285;28;20409;-68
2022/07/30 07:42:51;;;;;;;0.40;0.28;;;21.70;99.90;;;;;;4994375;28;20492;-68
2022/07/30 07:45:22;;;;;;;0.60;0.50;;;21.70;99.90;;;;;;4994712;28;20459;-68
2022/07/30 07:47:52;;;;;;;0.70;0.67;;;21.70;99.90;;;;;;4958570;28;20443;-69
2022/07/30 07:50:19;;;;;;;0.40;0.20;;;21.80;98.90;;;;;;4984951;28;20444;-69
2022/07/30 07:52:45;;;;;;;0.40;0.30;;;22.00;97.30;;;;;;4957273;28;20444;-68
2022/07/30 07:55:11;;;;;;;0.50;0.50;;;22.10;97.20;;;;;;4968156;28;20472;-69
2022/07/30 07:57:42;;;;;;;0.40;0.30;;;22.20;96.50;;;;;;4973953;28;20868;-68
2022/07/30 08:00:10;;;;;;;0.40;0.30;;;22.00;97.00;;;;;;5007119;28;20458;-68
2022/07/30 08:02:40;;;;;;;0.40;0.20;;;22.00;97.80;;;;;;4999940;28;20397;-69
2022/07/30 08:05:11;;;;;;;0.40;0.20;;;22.10;97.30;;;;;;4970144;28;20420;-68
2022/07/30 08:07:38;;;;;;;0.40;0.30;;;22.10;97.50;;;;;;5015205;28;20432;-69
2022/07/30 08:10:05;;;;;;;0.40;0.28;;;22.20;97.70;;;;;;4958703;28;20412;-67
2022/07/30 08:12:34;;;;;;;0.40;0.30;;;22.00;97.60;;;;;;5012266;28;20397;-67
2022/07/30 08:15:00;;;;;;;0.40;0.30;;;22.20;96.50;;;;;;4960401;28;20455;-67
2022/07/30 08:17:26;;;;;;;0.40;0.40;;;22.40;95.80;;;;;;4953725;28;20400;-67
2022/07/30 08:19:56;;;;;;;0.40;0.30;;;22.50;96.10;;;;;;4975146;28;20407;-67
2022/07/30 08:22:24;;;;;;;0.40;0.30;;;22.80;95.40;;;;;;4972352;28;20799;-68
2022/07/30 08:24:50;;;;;;;0.40;0.30;;;22.90;94.50;;;;;;4970138;28;20420;-66
2022/07/30 08:27:16;;;;;;;0.40;0.20;;;22.80;94.50;;;;;;4951361;28;20406;-68
2022/07/30 08:29:43;;;;;;;0.80;0.60;;;23.00;94.20;;;;;;4973456;28;20404;-68
2022/07/30 08:32:08;;;;;;;0.40;0.30;;;23.10;93.20;;;;;;4956457;28;20401;-67
2022/07/30 08:34:35;;;;;;;0.40;0.30;;;23.00;92.90;;;;;;4955702;28;20409;-66
2022/07/30 08:37:00;;;;;;;0.40;0.30;;;23.20;93.20;;;;;;4972309;28;20393;-67
2022/07/30 08:39:26;;;;;;;0.40;0.20;;;23.10;93.40;;;;;;4969267;28;20774;-68
2022/07/30 08:41:53;;;;;;;0.40;0.30;;;23.00;93.30;;;;;;4952620;28;20401;-68
2022/07/30 08:44:20;;;;;;;0.70;0.70;;;23.20;92.40;;;;;;4955052;28;20836;-67
2022/07/30 08:46:47;;;;;;;0.40;0.20;;;23.30;93.20;;;;;;4950544;28;20487;-67
2022/07/30 08:49:14;;;;;;;0.40;0.30;;;23.30;92.50;;;;;;4956458;28;20780;-68
2022/07/30 08:51:40;;;;;;;0.40;0.30;;;23.50;84.70;;;;;;4971293;28;20888;-67
2022/07/30 08:54:06;;;;;;;0.40;0.30;;;23.60;80.60;;;;;;4956376;28;20742;-68
2022/07/30 08:56:33;;;;;;;0.50;0.50;;;23.50;80.80;;;;;;4959565;28;20421;-67
2022/07/30 08:59:00;;;;;;;0.40;0.30;;;23.60;77.40;;;;;;4959355;28;20404;-67
2022/07/30 09:01:26;;;;;;;0.40;0.20;;;23.60;77.70;;;;;;4958684;28;20931;-67
2022/07/30 09:03:52;;;;;;;0.40;0.30;;;23.70;76.90;;;;;;4972800;28;20405;-67
2022/07/30 09:06:18;;;;;;;0.40;0.40;;;23.70;73.10;;;;;;4976992;28;20488;-68
2022/07/30 09:08:43;;;;;;;0.40;0.20;;;23.70;72.30;;;;;;4955559;28;20425;-68
2022/07/30 09:11:09;;;;;;;0.40;0.30;;;23.60;72.00;;;;;;4954150;28;20405;-68
2022/07/30 09:13:37;;;;;;;0.40;0.20;;;23.60;75.20;;;;;;4972611;28;20829;-67
2022/07/30 09:16:05;;;;;;;0.40;0.30;;;23.80;76.90;;;;;;4970389;28;20458;-68
2022/07/30 09:18:38;;;;;;;0.40;0.20;;;23.60;78.50;;;;;;4975062;28;20494;-67
2022/07/30 09:21:24;;;;;;;0.40;0.20;;;23.80;78.40;;;;;;4988285;28;20879;-67
2022/07/30 09:24:06;;;;;;;0.40;0.20;;;23.80;79.50;;;;;;4961375;28;20397;-69
2022/07/30 09:26:54;;;;;;;0.40;0.30;;;24.10;76.10;;;;;;4971379;28;20748;-67
2022/07/30 09:29:22;;;;;;;0.40;0.30;;;24.20;76.10;;;;;;4970407;28;20393;-67
2022/07/30 09:31:56;;;;;;;0.40;0.30;;;24.10;76.00;;;;;;4970646;28;20396;-67
2022/07/30 09:34:27;;;;;;;0.40;0.28;;;24.30;77.30;;;;;;4991430;28;20416;-67
2022/07/30 09:36:55;;;;;;;0.40;0.30;;;24.20;75.80;;;;;;4974893;28;20813;-67
2022/07/30 09:39:29;;;;;;;0.40;0.30;;;24.10;76.30;;;;;;4954539;28;20393;-67
2022/07/30 09:41:55;;;;;;;0.43;0.32;;;24.50;73.30;;;;;;4954690;28;20756;-67
2022/07/30 09:44:26;;;;;;;0.40;0.30;;;24.60;70.10;;;;;;4975691;28;20511;-67
2022/07/30 09:46:52;;;;;;;0.40;0.30;;;24.60;70.00;;;;;;4971787;28;20483;-67
2022/07/30 09:49:26;;;;;;;0.40;0.30;;;24.70;67.20;;;;;;4954042;28;20474;-67
2022/07/30 09:51:54;;;;;;;0.40;0.30;;;24.60;67.80;;;;;;4970465;28;20403;-67
2022/07/30 09:54:20;;;;;;;0.40;0.30;;;24.40;70.10;;;;;;4976006;28;20415;-67
2022/07/30 09:56:46;;;;;;;0.40;0.30;;;24.40;72.70;;;;;;4954451;28;20508;-68
2022/07/30 09:59:26;;;;;;;0.40;0.30;;;24.60;67.60;;;;;;4995708;28;20396;-67
2022/07/30 10:01:53;;;;;;;0.40;0.30;;;24.80;65.80;;;;;;4967606;28;20400;-67
2022/07/30 10:04:27;;;;;;;0.40;0.30;;;24.70;65.20;;;;;;4992814;28;20777;-67
2022/07/30 10:06:54;;;;;;;0.40;0.30;;;24.60;66.90;;;;;;4974788;28;20432;-67
2022/07/30 10:09:35;;;;;;;0.40;0.20;;;24.70;69.70;;;;;;4954325;28;20432;-67
2022/07/30 10:12:04;;;;;;;0.40;0.30;;;24.70;66.70;;;;;;4970824;28;20479;-67
2022/07/30 10:14:33;;;;;;;0.40;0.20;;;24.80;67.60;;;;;;4976838;28;20552;-67
2022/07/30 10:17:00;;;;;;;0.50;0.50;;;25.00;66.10;;;;;;4971832;28;20487;-68
2022/07/30 10:19:26;;;;;;;0.40;0.20;;;25.20;64.50;;;;;;4961042;28;20757;-67
2022/07/30 10:21:55;;;;;;;0.40;0.30;;;25.30;65.10;;;;;;4970710;28;20416;-68
2022/07/30 10:24:23;;;;;;;0.40;0.20;;;25.40;64.10;;;;;;4967360;28;20459;-67
2022/07/30 10:26:53;;;;;;;0.40;0.20;;;25.50;63.70;;;;;;4997642;28;20414;-67
2022/07/30 10:29:20;;;;;;;0.40;0.20;;;25.50;64.80;;;;;;4974285;28;20426;-66
2022/07/30 10:31:47;;;;;;;1.80;1.00;;;25.70;63.20;;;;;;5018938;28;20497;-67
2022/07/30 10:34:15;;;;;;;0.50;0.50;;;25.80;62.00;;;;;;5089557;28;20760;-67
2022/07/30 10:36:50;;;;;;;0.40;0.40;;;25.80;62.70;;;;;;4991156;28;20406;-68
2022/07/30 10:40:12;;;;;;;0.40;0.20;;;25.80;62.40;;;;;;5002291;28;20924;-68
2022/07/30 10:43:06;;;;;;;0.40;0.30;;;25.80;64.30;;;;;;4980847;28;20465;-67
2022/07/30 10:45:42;;;;;;;0.40;0.30;;;26.00;63.20;;;;;;4991189;28;20471;-68
2022/07/30 10:48:08;;;;;;;0.40;0.20;;;26.10;61.20;;;;;;4988151;28;20440;-68
2022/07/30 10:50:57;;;;;;;0.40;0.20;;;26.20;61.50;;;;;;4989586;28;20441;-68
2022/07/30 10:53:31;;;;;;;0.40;0.20;;;26.30;61.30;;;;;;4951096;29;20390;-68
2022/07/30 10:56:33;;;;;;;0.40;0.30;;;26.30;60.50;;;;;;4984173;28;20913;-66
2022/07/30 10:59:03;;;;;;;0.70;0.70;;;26.10;60.00;;;;;;4996897;28;20765;-68
2022/07/30 11:01:47;;;;;;;0.40;0.30;;;26.30;61.20;;;;;;4974638;28;20415;-68
2022/07/30 11:04:27;;;;;;;0.40;0.30;;;26.00;62.30;;;;;;4988320;28;20422;-68
2022/07/30 11:07:22;;;;;;;0.40;0.30;;;26.00;61.60;;;;;;4988581;28;20436;-68
2022/07/30 11:09:50;;;;;;;0.40;0.30;;;26.10;62.40;;;;;;4988504;28;20444;-68
2022/07/30 11:12:41;;;;;;;0.80;0.80;;;26.70;62.80;;;;;;4972166;28;20907;-68
2022/07/30 11:15:17;;;;;;;0.40;0.30;;;27.10;60.40;;;;;;4987769;28;20827;-68
2022/07/30 11:18:08;;;;;;;0.55;0.50;;;27.00;59.70;;;;;;4972121;28;20526;-68
2022/07/30 11:20:34;;;;;;;1.10;0.90;;;26.90;59.20;;;;;;4936656;28;20418;-67
2022/07/30 11:23:31;;;;;;;0.40;0.20;;;27.00;59.80;;;;;;4965549;28;20413;-68
2022/07/30 11:25:57;;;;;;;0.50;0.50;;;26.70;59.70;;;;;;4949444;28;20794;-68
2022/07/30 11:28:44;;;;;;;0.40;0.30;;;26.80;59.40;;;;;;4979193;28;20402;-68
2022/07/30 11:31:27;;;;;;;0.40;0.30;;;26.40;59.30;;;;;;4988235;28;20874;-68
2022/07/30 11:34:19;;;;;;;0.50;0.40;;;26.00;61.80;;;;;;4990633;28;21162;-69
2022/07/30 11:37:04;;;;;;;0.40;0.30;;;26.30;61.70;;;;;;4972646;28;20885;-68
2022/07/30 11:39:52;;;;;;;0.40;0.30;;;27.00;59.40;;;;;;4977169;28;20900;-68
2022/07/30 11:42:28;;;;;;;0.40;0.30;;;27.00;59.10;;;;;;5038996;28;20428;-69
2022/07/30 11:45:16;;;;;;;0.40;0.20;;;26.90;58.60;;;;;;4971954;28;20976;-68
2022/07/30 11:47:43;;;;;;;0.40;0.30;;;26.90;59.00;;;;;;4972901;28;20444;-68
2022/07/30 11:50:19;;;;;;;0.40;0.20;;;27.00;59.60;;;;;;4953790;28;20404;-68
2022/07/30 11:52:49;;;;;;;0.50;0.40;;;26.80;59.10;;;;;;4970017;28;20444;-68
2022/07/30 11:55:42;;;;;;;0.40;0.30;;;27.10;58.40;;;;;;4952933;28;20894;-70
2022/07/30 11:58:20;;;;;;;0.40;0.30;;;27.40;57.90;;;;;;4985273;28;20483;-67
2022/07/30 12:00:46;;;;;;;0.40;0.30;;;27.90;56.00;;;;;;4989553;28;20399;-67
2022/07/30 12:03:19;;;;;;;0.40;0.30;;;28.90;54.60;;;;;;4970485;28;20400;-68
2022/07/30 12:05:47;;;;;;;0.40;0.20;;;29.10;54.00;;;;;;4976990;28;20441;-68
2022/07/30 12:08:14;;;;;;;0.40;0.40;;;28.90;53.10;;;;;;4954094;28;20904;-68
2022/07/30 12:10:44;;;;;;;0.40;0.30;;;28.80;53.90;;;;;;4969543;28;20412;-68
2022/07/30 12:13:13;;;;;;;0.40;0.20;;;28.40;54.40;;;;;;4970615;28;20403;-68
2022/07/30 12:15:44;;;;;;;0.40;0.20;;;27.90;55.50;;;;;;4973685;28;20404;-68
2022/07/30 12:18:12;;;;;;;0.40;0.30;;;27.40;56.30;;;;;;4967506;28;20485;-68
2022/07/30 12:20:38;;;;;;;0.40;0.30;;;27.10;57.00;;;;;;4955985;28;20735;-68
2022/07/30 12:23:14;;;;;;;0.40;0.30;;;27.00;58.10;;;;;;4955336;28;20408;-68
2022/07/30 12:25:41;;;;;;;0.40;0.30;;;28.50;56.40;;;;;;4992611;28;20418;-68
2022/07/30 12:28:18;;;;;;;0.40;0.30;;;28.70;55.50;;;;;;5052555;28;20732;-67
2022/07/30 12:30:44;;;;;;;0.40;0.30;;;28.60;53.50;;;;;;4952101;28;20463;-69
2022/07/30 12:33:11;;;;;;;0.40;0.20;;;28.50;55.20;;;;;;4997838;28;20391;-70
2022/07/30 12:35:46;;;;;;;0.40;0.30;;;28.80;54.20;;;;;;4974108;28;20763;-69
2022/07/30 12:38:14;;;;;;;0.47;0.47;;;29.70;52.20;;;;;;5028877;28;20408;-67
2022/07/30 12:40:54;;;;;;;0.40;0.20;;;29.70;54.10;;;;;;4990092;28;20532;-66
2022/07/30 12:43:45;;;;;;;0.40;0.20;;;29.40;53.00;;;;;;4999069;28;20455;-70
2022/07/30 12:46:13;;;;;;;0.40;0.20;;;28.70;53.70;;;;;;5014250;28;20428;-71
2022/07/30 12:49:01;;;;;;;0.40;0.30;;;28.40;54.60;;;;;;4995994;28;20387;-69
2022/07/30 12:51:33;;;;;;;0.40;0.30;;;29.10;54.60;;;;;;4986031;28;20456;-68
2022/07/30 12:54:20;;;;;;;0.40;0.20;;;29.00;53.00;;;;;;4987840;28;20486;-67
2022/07/30 12:57:15;;;;;;;0.40;0.20;;;28.60;53.30;;;;;;4990497;28;20457;-70
2022/07/30 12:59:41;;;;;;;0.40;0.30;;;27.90;54.20;;;;;;5014396;28;20513;-67
2022/07/30 13:02:07;;;;;;;0.40;0.20;;;27.80;55.00;;;;;;4990257;28;20462;-68